createdAt,value
2023-01-15T00:01:26.603Z,101695.81
2023-01-15T00:03:59.962Z,101696.72
2023-01-15T00:06:28.272Z,101694.16
2023-01-15T00:08:56.489Z,101695.88
2023-01-15T00:11:24.324Z,101689.72
2023-01-15T00:13:53.874Z,101688.84
2023-01-15T00:16:23.339Z,101688.00
2023-01-15T00:18:57.593Z,101686.25
2023-01-15T00:21:27.574Z,101688.78
2023-01-15T00:24:14.532Z,101688.78
2023-01-15T00:27:00.673Z,101692.25
2023-01-15T00:29:29.076Z,101692.19
2023-01-15T00:31:59.862Z,101699.09
2023-01-15T00:34:28.132Z,101675.81
2023-01-15T00:36:55.728Z,101687.03
2023-01-15T00:39:26.717Z,101682.66
2023-01-15T00:41:55.033Z,101684.44
2023-01-15T00:44:23.726Z,101676.66
2023-01-15T00:46:52.331Z,101683.59
2023-01-15T00:49:22.192Z,101685.31
2023-01-15T00:51:51.246Z,101677.47
2023-01-15T00:54:18.916Z,101684.47
2023-01-15T00:56:46.458Z,101674.88
2023-01-15T00:59:16.066Z,101682.72
2023-01-15T01:01:44.213Z,101674.03
2023-01-15T01:04:11.919Z,101674.06
2023-01-15T01:06:39.608Z,101670.59
2023-01-15T01:09:07.351Z,101676.63
2023-01-15T01:11:36.423Z,101674.00
2023-01-15T01:14:03.986Z,101666.22
2023-01-15T01:16:37.826Z,101668.69
2023-01-15T01:19:10.044Z,101682.50
2023-01-15T01:21:39.485Z,101683.41
2023-01-15T01:24:08.165Z,101672.19
2023-01-15T01:26:37.871Z,101673.94
2023-01-15T01:29:05.575Z,101667.09
2023-01-15T01:31:33.963Z,101664.50
2023-01-15T01:34:01.396Z,101665.44
2023-01-15T01:36:31.991Z,101656.88
2023-01-15T01:39:00.618Z,101663.81
2023-01-15T01:41:30.640Z,101667.28
2023-01-15T01:44:04.677Z,101661.16
2023-01-15T01:46:35.068Z,101658.63
2023-01-15T01:49:09.685Z,101666.41
2023-01-15T01:51:43.497Z,101656.81
2023-01-15T01:54:15.318Z,101654.91
2023-01-15T01:56:43.007Z,101650.66
2023-01-15T01:59:10.713Z,101649.78
2023-01-15T02:01:40.562Z,101646.34
2023-01-15T02:04:10.976Z,101650.66
2023-01-15T02:06:42.734Z,101649.00
2023-01-15T02:09:11.216Z,101648.94
2023-01-15T02:11:38.996Z,101642.00
2023-01-15T02:14:11.939Z,101649.78
2023-01-15T02:16:55.031Z,101648.06
2023-01-15T02:19:59.840Z,101644.56
2023-01-15T02:22:48.036Z,101645.44
2023-01-15T02:25:40.270Z,101651.47
2023-01-15T02:28:30.949Z,101643.66
2023-01-15T02:31:07.151Z,101638.47
2023-01-15T02:33:49.255Z,101636.69
2023-01-15T02:36:22.394Z,101635.84
2023-01-15T02:38:56.089Z,101634.16
2023-01-15T02:41:30.254Z,101641.13
2023-01-15T02:43:59.483Z,101636.81
2023-01-15T02:46:33.169Z,101638.56
2023-01-15T02:49:07.760Z,101643.75
2023-01-15T02:51:44.603Z,101632.56
2023-01-15T02:54:16.450Z,101637.78
2023-01-15T02:56:47.555Z,101645.47
2023-01-15T02:59:21.715Z,101642.84
2023-01-15T03:02:19.127Z,101646.34
2023-01-15T03:04:56.061Z,101643.53
2023-01-15T03:07:29.955Z,101633.16
2023-01-15T03:09:58.132Z,101627.09
2023-01-15T03:12:30.948Z,101640.03
2023-01-15T03:15:02.224Z,101644.41
2023-01-15T03:17:39.633Z,101640.97
2023-01-15T03:20:14.147Z,101648.81
2023-01-15T03:22:46.254Z,101644.53
2023-01-15T03:25:24.754Z,101648.88
2023-01-15T03:27:58.380Z,101644.47
2023-01-15T03:30:30.955Z,101640.94
2023-01-15T03:32:58.830Z,101646.97
2023-01-15T03:35:52.975Z,101645.28
2023-01-15T03:38:50.988Z,101643.59
2023-01-15T03:41:42.442Z,101653.13
2023-01-15T03:44:26.876Z,101653.19
2023-01-15T03:47:12.517Z,101646.22
2023-01-15T03:50:19.290Z,101643.63
2023-01-15T03:53:06.921Z,101643.53
2023-01-15T03:56:10.574Z,101655.72
2023-01-15T03:59:06.443Z,101654.97
2023-01-15T04:01:58.272Z,101645.34
2023-01-15T04:04:28.504Z,101654.00
2023-01-15T04:06:57.786Z,101648.00
2023-01-15T04:09:25.565Z,101647.13
2023-01-15T04:12:01.384Z,101654.06
2023-01-15T04:14:33.476Z,101656.59
2023-01-15T04:17:06.816Z,101644.47
2023-01-15T04:19:34.566Z,101650.53
2023-01-15T04:22:05.493Z,101648.00
2023-01-15T04:24:34.188Z,101647.13
2023-01-15T04:27:01.842Z,101643.69
2023-01-15T04:29:29.458Z,101642.06
2023-01-15T04:31:58.022Z,101638.47
2023-01-15T04:34:29.336Z,101655.75
2023-01-15T04:36:57.514Z,101645.38
2023-01-15T04:39:25.327Z,101643.63
2023-01-15T04:42:11.876Z,101650.59
2023-01-15T04:44:39.785Z,101658.38
2023-01-15T04:47:07.502Z,101657.56
2023-01-15T04:49:36.030Z,101662.69
2023-01-15T04:52:06.851Z,101666.28
2023-01-15T04:54:34.492Z,101661.88
2023-01-15T04:57:02.600Z,101660.84
2023-01-15T04:59:33.413Z,101670.41
2023-01-15T05:02:06.638Z,101663.56
2023-01-15T05:04:35.601Z,101660.91
2023-01-15T05:07:04.648Z,101669.47
2023-01-15T05:09:32.746Z,101671.28
2023-01-15T05:12:00.452Z,101664.44
2023-01-15T05:14:28.421Z,101670.50
2023-01-15T05:16:56.335Z,101679.25
2023-01-15T05:19:24.627Z,101667.97
2023-01-15T05:21:53.387Z,101657.56
2023-01-15T05:24:20.917Z,101659.16
2023-01-15T05:26:48.890Z,101664.34
2023-01-15T05:29:16.473Z,101661.84
2023-01-15T05:31:45.371Z,101653.31
2023-01-15T05:34:13.584Z,101662.72
2023-01-15T05:36:41.618Z,101665.44
2023-01-15T05:39:09.625Z,101653.31
2023-01-15T05:41:50.356Z,101661.16
2023-01-15T05:44:19.710Z,101660.28
2023-01-15T05:46:48.115Z,101660.34
2023-01-15T05:49:21.894Z,101651.66
2023-01-15T05:51:51.039Z,101642.00
2023-01-15T05:54:27.458Z,101652.44
2023-01-15T05:56:56.012Z,101650.72
2023-01-15T05:59:27.151Z,101667.16
2023-01-15T06:01:55.769Z,101668.00
2023-01-15T06:04:25.169Z,101656.69
2023-01-15T06:06:53.501Z,101663.63
2023-01-15T06:09:23.161Z,101664.50
2023-01-15T06:11:51.045Z,101669.63
2023-01-15T06:14:18.997Z,101664.47
2023-01-15T06:16:47.155Z,101675.66
2023-01-15T06:19:14.887Z,101673.06
2023-01-15T06:21:42.527Z,101674.81
2023-01-15T06:24:10.414Z,101682.59
2023-01-15T06:26:41.023Z,101678.25
2023-01-15T06:29:08.792Z,101672.22
2023-01-15T06:31:36.922Z,101674.00
2023-01-15T06:34:04.513Z,101678.38
2023-01-15T06:36:32.360Z,101683.53
2023-01-15T06:39:00.399Z,101683.38
2023-01-15T06:41:46.417Z,101682.41
2023-01-15T06:44:34.601Z,101684.16
2023-01-15T06:47:21.238Z,101685.19
2023-01-15T06:49:54.791Z,101677.41
2023-01-15T06:52:23.999Z,101681.00
2023-01-15T06:54:51.991Z,101667.09
2023-01-15T06:57:19.968Z,101669.69
2023-01-15T06:59:49.157Z,101672.41
2023-01-15T07:02:18.279Z,101675.06
2023-01-15T07:04:47.048Z,101673.34
2023-01-15T07:07:19.479Z,101666.34
2023-01-15T07:09:47.050Z,101665.47
2023-01-15T07:12:15.241Z,101670.72
2023-01-15T07:14:42.826Z,101673.31
2023-01-15T07:17:10.439Z,101672.41
2023-01-15T07:19:38.103Z,101662.94
2023-01-15T07:22:07.063Z,101670.78
2023-01-15T07:24:34.760Z,101668.19
2023-01-15T07:27:02.692Z,101670.75
2023-01-15T07:29:31.679Z,101667.34
2023-01-15T07:31:59.808Z,101665.59
2023-01-15T07:34:27.989Z,101669.13
2023-01-15T07:36:55.585Z,101673.44
2023-01-15T07:39:24.646Z,101657.88
2023-01-15T07:42:11.009Z,101658.78
2023-01-15T07:44:58.783Z,101654.34
2023-01-15T07:47:45.940Z,101657.94
2023-01-15T07:50:14.933Z,101656.13
2023-01-15T07:52:42.959Z,101654.34
2023-01-15T07:55:12.906Z,101659.66
2023-01-15T07:57:42.210Z,101648.41
2023-01-15T08:00:14.371Z,101653.53
2023-01-15T08:02:42.291Z,101662.22
2023-01-15T08:05:11.714Z,101657.09
2023-01-15T08:07:40.536Z,101656.28
2023-01-15T08:10:13.540Z,101660.56
2023-01-15T08:13:00.170Z,101653.59
2023-01-15T08:15:33.689Z,101634.44
2023-01-15T08:18:01.383Z,101650.09
2023-01-15T08:20:29.517Z,101645.81
2023-01-15T08:22:57.265Z,101652.78
2023-01-15T08:25:26.369Z,101658.91
2023-01-15T08:27:55.243Z,101652.88
2023-01-15T08:30:25.364Z,101648.44
2023-01-15T08:32:53.024Z,101650.13
2023-01-15T08:35:20.718Z,101642.34
2023-01-15T08:37:48.255Z,101647.53
2023-01-15T08:40:15.969Z,101635.47
2023-01-15T08:42:44.058Z,101641.53
2023-01-15T08:45:12.080Z,101637.09
2023-01-15T08:47:39.740Z,101629.38
2023-01-15T08:50:09.653Z,101627.63
2023-01-15T08:52:41.116Z,101622.56
2023-01-15T08:55:09.029Z,101626.03
2023-01-15T08:57:39.103Z,101613.91
2023-01-15T09:00:07.515Z,101621.75
2023-01-15T09:02:35.069Z,101613.09
2023-01-15T09:05:02.955Z,101607.03
2023-01-15T09:07:30.710Z,101602.75
2023-01-15T09:09:58.255Z,101617.50
2023-01-15T09:12:27.473Z,101608.72
2023-01-15T09:14:57.479Z,101607.91
2023-01-15T09:17:32.716Z,101605.28
2023-01-15T09:20:00.408Z,101594.94
2023-01-15T09:22:30.898Z,101587.16
2023-01-15T09:24:59.030Z,101595.88
2023-01-15T09:27:27.924Z,101578.44
2023-01-15T09:29:56.784Z,101587.22
2023-01-15T09:32:25.173Z,101582.84
2023-01-15T09:34:53.040Z,101575.88
2023-01-15T09:37:20.621Z,101576.78
2023-01-15T09:46:53.778Z,101582.81
2023-01-15T09:49:47.183Z,101569.88
2023-01-15T09:52:37.744Z,101582.94
2023-01-15T09:55:14.613Z,101576.88
2023-01-15T09:57:43.099Z,101576.84
2023-01-15T10:00:19.611Z,101573.44
2023-01-15T10:03:02.624Z,101566.44
2023-01-15T10:05:42.728Z,101564.72
2023-01-15T10:08:19.808Z,101567.34
2023-01-15T10:10:57.232Z,101557.81
2023-01-15T10:13:46.861Z,101569.03
2023-01-15T10:16:28.788Z,101566.44
2023-01-15T10:19:02.528Z,101549.16
2023-01-15T10:21:36.055Z,101563.88
2023-01-15T10:30:04.760Z,101555.25
2023-01-15T10:33:01.381Z,101554.38
2023-01-15T10:35:47.307Z,101538.81
2023-01-15T10:38:27.018Z,101532.72
2023-01-15T10:41:14.528Z,101544.00
2023-01-15T10:43:50.881Z,101545.72
2023-01-15T10:46:38.147Z,101541.41
2023-01-15T10:49:14.025Z,101548.34
2023-01-15T10:51:51.484Z,101545.72
2023-01-15T10:54:34.546Z,101544.00
2023-01-15T10:57:12.252Z,101543.97
2023-01-15T10:59:50.180Z,101543.13
2023-01-15T11:02:40.488Z,101543.16
2023-01-15T11:05:16.765Z,101538.81
2023-01-15T11:08:16.549Z,101531.00
2023-01-15T11:10:41.365Z,101528.38
2023-01-15T11:13:48.540Z,101526.69
2023-01-15T11:16:36.737Z,101525.81
2023-01-15T11:19:25.452Z,101515.34
2023-01-15T11:21:54.755Z,101514.50
2023-01-15T11:24:22.277Z,101511.91
2023-01-15T11:26:52.835Z,101507.56
2023-01-15T11:29:44.010Z,101512.75
2023-01-15T11:32:27.015Z,101518.81
2023-01-15T11:35:01.463Z,101519.69
2023-01-15T11:37:43.695Z,101520.59
2023-01-15T11:40:18.764Z,101513.66
2023-01-15T11:43:09.644Z,101516.25
2023-01-15T11:46:10.398Z,101513.66
2023-01-15T11:49:04.409Z,101509.28
2023-01-15T11:51:41.552Z,101514.50
2023-01-15T11:54:12.976Z,101505.00
2023-01-15T11:56:46.038Z,101507.59
2023-01-15T11:59:18.963Z,101506.72
2023-01-15T12:02:09.755Z,101507.59
2023-01-15T12:04:47.285Z,101495.47
2023-01-15T12:07:19.176Z,101508.44
2023-01-15T12:10:01.951Z,101512.78
2023-01-15T12:12:51.507Z,101501.53
2023-01-15T12:15:43.993Z,101515.41
2023-01-15T12:18:45.430Z,101514.56
2023-01-15T12:21:51.176Z,101514.53
2023-01-15T12:24:23.182Z,101511.88
2023-01-15T12:27:29.957Z,101514.47
2023-01-15T12:30:28.544Z,101513.59
2023-01-15T12:33:05.653Z,101517.13
2023-01-15T12:35:48.396Z,101519.72
2023-01-15T12:38:31.284Z,101514.50
2023-01-15T12:41:04.800Z,101520.56
2023-01-15T12:43:51.009Z,101512.72
2023-01-15T12:46:29.261Z,101516.22
2023-01-15T12:49:16.395Z,101512.75
2023-01-15T12:52:09.191Z,101517.97
2023-01-15T12:54:49.717Z,101518.84
2023-01-15T12:57:40.630Z,101511.00
2023-01-15T13:00:17.530Z,101511.88
2023-01-15T13:03:09.038Z,101516.25
2023-01-15T13:05:42.487Z,101513.66
2023-01-15T13:08:35.660Z,101511.91
2023-01-15T13:11:03.996Z,101511.94
2023-01-15T13:13:36.421Z,101520.63
2023-01-15T13:16:15.937Z,101521.44
2023-01-15T13:19:06.771Z,101521.44
2023-01-15T13:21:36.985Z,101517.09
2023-01-15T13:24:20.157Z,101511.06
2023-01-15T13:27:13.021Z,101514.50
2023-01-15T13:29:47.643Z,101520.56
2023-01-15T13:32:29.255Z,101519.69
2023-01-15T13:35:14.886Z,101512.69
2023-01-15T13:37:49.906Z,101519.63
2023-01-15T13:40:21.400Z,101516.16
2023-01-15T13:42:50.525Z,101506.63
2023-01-15T13:45:43.127Z,101514.47
2023-01-15T13:48:24.160Z,101511.88
2023-01-15T13:50:57.865Z,101509.22
2023-01-15T13:53:34.247Z,101522.25
2023-01-15T13:56:06.412Z,101516.19
2023-01-15T13:58:38.315Z,101523.97
2023-01-15T14:01:17.946Z,101519.63
2023-01-15T14:04:15.568Z,101506.59
2023-01-15T14:06:56.086Z,101518.72
2023-01-15T14:09:29.583Z,101522.25
2023-01-15T14:11:59.909Z,101523.03
2023-01-15T14:14:45.575Z,101526.47
2023-01-15T14:17:37.355Z,101524.75
2023-01-15T14:20:35.749Z,101518.69
2023-01-15T14:23:25.103Z,101516.09
2023-01-15T14:25:58.542Z,101525.66
2023-01-15T14:28:52.226Z,101523.94
2023-01-15T14:31:50.712Z,101532.59
2023-01-15T14:34:24.428Z,101526.56
2023-01-15T14:37:12.992Z,101521.38
2023-01-15T17:03:26.187Z,101527.22
2023-01-15T17:05:57.116Z,101526.41
2023-01-15T17:08:34.308Z,101529.03
2023-01-15T17:11:04.130Z,101524.75
2023-01-15T17:13:38.437Z,101529.03
2023-01-15T17:16:17.228Z,101524.75
2023-01-15T17:18:46.379Z,101520.41
2023-01-15T17:21:18.280Z,101529.09
2023-01-15T17:23:46.810Z,101521.31
2023-01-15T17:26:26.290Z,101526.53
2023-01-15T17:28:53.939Z,101511.78
2023-01-15T17:31:24.166Z,101521.34
2023-01-15T17:33:51.873Z,101521.34
2023-01-15T17:36:20.607Z,101515.28
2023-01-15T17:38:48.341Z,101517.84
2023-01-15T17:41:18.083Z,101505.72
2023-01-15T17:43:46.130Z,101508.31
2023-01-15T17:46:13.673Z,101511.78
2023-01-15T17:48:41.326Z,101507.41
2023-01-15T17:51:14.356Z,101510.84
2023-01-15T17:53:44.069Z,101503.94
2023-01-15T17:56:30.733Z,101507.38
2023-01-15T17:59:16.797Z,101509.09
2023-01-15T18:02:05.918Z,101499.56
2023-01-15T18:05:00.758Z,101491.81
2023-01-15T18:07:34.428Z,101497.81
2023-01-15T18:10:02.208Z,101485.69
2023-01-15T18:12:31.031Z,101474.47
2023-01-15T18:14:58.612Z,101476.25
2023-01-15T18:17:26.221Z,101481.41
2023-01-15T18:19:55.795Z,101478.78
2023-01-15T18:22:23.673Z,101473.59
2023-01-15T18:24:51.170Z,101472.75
2023-01-15T18:27:18.757Z,101462.41
2023-01-15T18:29:46.405Z,101460.59
2023-01-15T18:32:14.054Z,101466.56
2023-01-15T18:34:41.646Z,101469.19
2023-01-15T18:37:09.169Z,101465.69
2023-01-15T18:39:37.473Z,101470.03
2023-01-15T18:42:05.764Z,101471.78
2023-01-15T18:44:52.522Z,101469.97
2023-01-15T18:47:20.131Z,101469.19
2023-01-15T18:49:47.837Z,101463.97
2023-01-15T18:52:35.284Z,101470.91
2023-01-15T18:55:03.179Z,101463.03
2023-01-15T18:57:33.487Z,101457.84
2023-01-15T19:00:04.524Z,101455.22
2023-01-15T19:02:32.445Z,101457.84
2023-01-15T19:05:00.126Z,101449.19
2023-01-15T19:07:27.915Z,101453.59
2023-01-15T19:09:55.674Z,101446.59
2023-01-15T19:12:23.341Z,101446.59
2023-01-15T19:15:09.846Z,101439.69
2023-01-15T19:17:56.171Z,101439.69
2023-01-15T19:20:23.869Z,101436.28
2023-01-15T19:23:02.252Z,101438.09
2023-01-15T19:25:35.869Z,101436.31
2023-01-15T19:28:07.770Z,101437.19
2023-01-15T19:30:37.773Z,101441.50
2023-01-15T19:33:06.831Z,101445.81
2023-01-15T19:35:35.704Z,101442.41
2023-01-15T19:38:08.161Z,101432.06
2023-01-15T19:40:40.588Z,101439.84
2023-01-15T19:43:29.162Z,101439.84
2023-01-15T19:46:15.844Z,101442.38
2023-01-15T19:49:03.844Z,101439.78
2023-01-15T19:51:50.387Z,101430.31
2023-01-15T19:54:37.905Z,101440.69
2023-01-15T19:57:05.633Z,101432.00
2023-01-15T19:59:33.526Z,101429.44
2023-01-15T20:02:03.640Z,101435.53
2023-01-15T20:04:31.289Z,101431.22
2023-01-15T20:06:58.904Z,101438.94
2023-01-15T20:09:26.519Z,101432.84
2023-01-15T20:12:12.861Z,101446.75
2023-01-15T20:19:28.516Z,101419.03
2023-01-15T20:23:10.776Z,101429.44
2023-01-15T20:26:47.046Z,101420.78
2023-01-15T20:29:14.792Z,101430.28
2023-01-15T20:31:42.492Z,101426.81
2023-01-15T20:34:10.134Z,101432.06
2023-01-15T20:36:37.846Z,101432.06
2023-01-15T20:39:05.531Z,101427.75
2023-01-15T20:41:52.709Z,101430.31
2023-01-15T20:44:38.884Z,101432.94
2023-01-15T20:47:26.487Z,101422.56
2023-01-15T20:49:54.081Z,101411.28
2023-01-15T20:52:21.929Z,101413.88
2023-01-15T20:54:50.607Z,101426.84
2023-01-15T20:57:18.235Z,101424.25
2023-01-15T20:59:45.752Z,101439.78
2023-01-15T21:02:13.437Z,101434.63
2023-01-15T21:04:40.987Z,101430.28
2023-01-15T21:07:08.762Z,101430.28
2023-01-15T21:09:36.722Z,101425.06
2023-01-15T21:12:05.038Z,101426.00
2023-01-15T21:14:35.214Z,101425.16
2023-01-15T21:17:05.199Z,101416.50
2023-01-15T21:19:33.314Z,101430.38
2023-01-15T21:22:01.650Z,101426.84
2023-01-15T21:24:29.532Z,101424.28
2023-01-15T21:26:57.075Z,101423.41
2023-01-15T21:29:24.705Z,101421.63
2023-01-15T21:31:54.061Z,101416.44
2023-01-15T21:34:21.820Z,101425.09
2023-01-15T21:36:50.466Z,101425.97
2023-01-15T21:39:18.302Z,101421.63
2023-01-15T21:42:04.581Z,101415.53
2023-01-15T21:44:43.167Z,101412.97
2023-01-15T21:47:13.346Z,101415.50
2023-01-15T21:49:41.908Z,101418.13
2023-01-15T21:52:16.279Z,101430.25
2023-01-15T21:54:44.333Z,101425.06
2023-01-15T21:57:13.218Z,101425.94
2023-01-15T21:59:41.260Z,101425.06
2023-01-15T22:02:16.670Z,101436.28
2023-01-15T22:04:44.541Z,101428.53
2023-01-15T22:07:12.508Z,101429.34
2023-01-15T22:09:40.172Z,101425.00
2023-01-15T22:12:07.816Z,101422.41
2023-01-15T22:14:35.629Z,101424.16
2023-01-15T22:17:04.634Z,101429.38
2023-01-15T22:19:33.393Z,101425.03
2023-01-15T22:22:08.721Z,101413.69
2023-01-15T22:24:41.395Z,101418.88
2023-01-15T22:27:14.484Z,101425.88
2023-01-15T22:29:42.738Z,101421.56
2023-01-15T22:32:14.330Z,101418.91
2023-01-15T22:34:42.921Z,101415.47
2023-01-15T22:37:13.004Z,101412.03
2023-01-15T22:39:40.655Z,101416.41
2023-01-15T22:42:32.963Z,101412.00
2023-01-15T22:45:00.979Z,101420.69
2023-01-15T22:47:31.807Z,101414.59
2023-01-15T22:49:59.416Z,101412.84
2023-01-15T22:52:27.525Z,101409.41
2023-01-15T22:55:08.017Z,101405.09
2023-01-15T22:57:36.509Z,101413.75
2023-01-15T23:00:05.327Z,101412.91
2023-01-15T23:02:51.649Z,101408.59
2023-01-15T23:05:19.500Z,101411.16
2023-01-15T23:07:47.924Z,101404.28
2023-01-15T23:10:15.891Z,101406.81
2023-01-15T23:12:44.069Z,101408.56
2023-01-15T23:15:13.485Z,101411.16
2023-01-15T23:17:42.212Z,101407.72
2023-01-15T23:20:11.081Z,101406.00
2023-01-15T23:22:38.910Z,101412.91
2023-01-15T23:25:09.032Z,101417.25
2023-01-15T23:27:37.015Z,101411.22
2023-01-15T23:30:05.661Z,101411.19
2023-01-15T23:32:33.492Z,101412.94
2023-01-15T23:35:01.015Z,101414.59
2023-01-15T23:37:33.301Z,101414.56
2023-01-15T23:40:00.844Z,101408.47
2023-01-15T23:42:47.566Z,101418.06
2023-01-15T23:45:36.893Z,101405.09
2023-01-15T23:48:04.956Z,101413.75
2023-01-15T23:50:32.695Z,101407.75
2023-01-15T23:53:00.348Z,101401.72
2023-01-15T23:55:27.907Z,101399.97
2023-01-15T23:57:55.383Z,101401.72
